createdAt,value
2022-11-22T00:00:20.173Z,30.35
2022-11-22T00:05:13.796Z,25.88
2022-11-22T00:07:40.293Z,28.40
2022-11-22T00:10:08.284Z,29.40
2022-11-22T00:12:34.638Z,28.10
2022-11-22T00:15:01.061Z,26.33
2022-11-22T00:17:27.605Z,31.23
2022-11-22T00:19:53.911Z,27.85
2022-11-22T00:22:20.230Z,29.30
2022-11-22T00:24:46.894Z,32.80
2022-11-22T00:27:13.264Z,27.35
2022-11-22T00:29:39.568Z,29.85
2022-11-22T00:32:05.880Z,27.75
2022-11-22T00:34:32.190Z,25.05
2022-11-22T00:36:58.543Z,28.00
2022-11-22T00:39:24.852Z,31.00
2022-11-22T00:41:51.176Z,30.25
2022-11-22T00:44:17.555Z,25.88
2022-11-22T00:46:43.866Z,29.95
2022-11-22T00:49:10.181Z,28.38
2022-11-22T00:51:36.486Z,26.92
2022-11-22T00:54:02.794Z,28.77
2022-11-22T00:56:29.395Z,28.10
2022-11-22T00:58:55.682Z,28.45
2022-11-22T01:01:22.030Z,29.20
2022-11-22T01:03:48.460Z,33.67
2022-11-22T01:06:14.793Z,34.63
2022-11-22T01:08:41.183Z,30.48
2022-11-22T01:11:07.567Z,29.33
2022-11-22T01:13:34.253Z,32.70
2022-11-22T01:16:02.128Z,33.03
2022-11-22T01:18:28.722Z,35.45
2022-11-22T01:20:55.261Z,30.52
2022-11-22T01:23:21.648Z,27.17
2022-11-22T01:25:48.049Z,27.67
2022-11-22T01:28:14.448Z,31.63
2022-11-22T01:30:41.653Z,30.70
2022-11-22T01:33:08.953Z,28.58
2022-11-22T01:35:35.391Z,32.45
2022-11-22T01:38:01.863Z,28.98
2022-11-22T01:40:28.435Z,33.13
2022-11-22T01:42:57.212Z,30.83
2022-11-22T01:45:29.525Z,26.88
2022-11-22T01:48:01.191Z,29.67
2022-11-22T01:50:30.529Z,30.10
2022-11-22T01:53:02.845Z,27.45
2022-11-22T01:55:30.233Z,29.95
2022-11-22T01:57:57.911Z,29.42
2022-11-22T02:00:24.385Z,30.67
2022-11-22T02:02:53.756Z,31.27
2022-11-22T02:05:24.027Z,28.20
2022-11-22T02:08:09.256Z,29.65
2022-11-22T02:10:41.883Z,34.05
2022-11-22T02:13:10.163Z,28.65
2022-11-22T02:15:36.575Z,35.65
2022-11-22T02:18:03.357Z,28.40
2022-11-22T02:20:29.780Z,30.38
2022-11-22T02:23:03.735Z,32.97
2022-11-22T02:25:37.133Z,32.40
2022-11-22T02:28:04.748Z,31.52
2022-11-22T02:30:31.313Z,31.27
2022-11-22T02:32:57.753Z,29.15
2022-11-22T02:35:26.963Z,33.20
2022-11-22T02:38:02.891Z,30.73
2022-11-22T02:40:34.362Z,31.25
2022-11-22T02:48:16.989Z,30.42
2022-11-22T02:50:43.732Z,32.55
2022-11-22T02:53:11.781Z,30.95
2022-11-22T02:55:38.644Z,32.97
2022-11-22T02:58:06.031Z,32.75
2022-11-22T03:00:37.956Z,31.77
2022-11-22T03:03:04.771Z,32.50
2022-11-22T03:05:31.572Z,29.08
2022-11-22T03:07:57.960Z,33.35
2022-11-22T03:10:24.756Z,30.83
2022-11-22T03:12:51.861Z,30.63
2022-11-22T03:15:18.409Z,32.83
2022-11-22T03:17:44.771Z,35.35
2022-11-22T03:20:11.408Z,29.50
2022-11-22T03:22:37.870Z,32.85
2022-11-22T03:25:04.740Z,28.98
2022-11-22T03:27:31.377Z,36.67
2022-11-22T03:29:57.849Z,31.30
2022-11-22T03:32:24.415Z,30.20
2022-11-22T03:34:50.848Z,29.20
2022-11-22T03:37:17.284Z,34.47
2022-11-22T03:39:43.732Z,29.83
2022-11-22T03:42:10.108Z,35.60
2022-11-22T03:44:36.495Z,30.77
2022-11-22T03:47:02.886Z,32.80
2022-11-22T03:49:29.532Z,37.30
2022-11-22T03:51:56.198Z,34.85
2022-11-22T03:54:22.617Z,32.55
2022-11-22T03:56:48.991Z,30.08
2022-11-22T03:59:15.360Z,25.40
2022-11-22T04:01:41.801Z,32.80
2022-11-22T04:04:08.217Z,30.80
2022-11-22T04:06:34.633Z,29.88
2022-11-22T04:09:01.157Z,28.92
2022-11-22T04:11:27.601Z,31.90
2022-11-22T04:14:12.615Z,32.88
2022-11-22T04:16:39.035Z,33.80
2022-11-22T04:19:05.475Z,30.58
2022-11-22T04:21:34.505Z,29.63
2022-11-22T04:24:30.052Z,28.45
2022-11-22T04:26:57.393Z,30.15
2022-11-22T04:29:24.307Z,30.17
2022-11-22T04:32:10.385Z,31.00
2022-11-22T04:34:37.488Z,28.50
2022-11-22T04:37:04.724Z,29.27
2022-11-22T04:39:31.490Z,29.38
2022-11-22T04:42:16.552Z,31.77
2022-11-22T04:44:44.136Z,29.67
2022-11-22T04:47:12.889Z,32.25
2022-11-22T04:49:39.289Z,29.52
2022-11-22T04:52:24.885Z,26.40
2022-11-22T04:54:51.310Z,32.30
2022-11-22T04:57:17.668Z,30.95
2022-11-22T04:59:44.065Z,31.95
2022-11-22T05:02:10.492Z,32.28
2022-11-22T05:04:36.876Z,28.15
2022-11-22T05:07:03.404Z,32.10
2022-11-22T05:09:30.057Z,29.05
2022-11-22T05:11:56.691Z,30.50
2022-11-22T05:14:23.116Z,33.22
2022-11-22T05:16:49.505Z,30.13
2022-11-22T05:19:15.883Z,31.25
2022-11-22T05:21:42.267Z,28.63
2022-11-22T05:24:08.937Z,35.40
2022-11-22T05:26:36.777Z,32.17
2022-11-22T05:29:08.614Z,31.48
2022-11-22T05:31:36.552Z,36.55
2022-11-22T05:34:03.692Z,34.92
2022-11-22T05:36:32.887Z,34.97
2022-11-22T05:38:59.600Z,33.67
2022-11-22T05:41:26.239Z,32.95
2022-11-22T05:43:55.654Z,35.65
2022-11-22T05:46:26.103Z,34.28
2022-11-22T05:48:54.548Z,35.30
2022-11-22T05:51:23.593Z,34.13
2022-11-22T05:53:50.016Z,36.20
2022-11-22T05:56:21.348Z,35.55
2022-11-22T05:58:47.858Z,36.58
2022-11-22T06:01:23.261Z,40.38
2022-11-22T06:03:50.561Z,36.00
2022-11-22T06:06:17.291Z,39.97
2022-11-22T06:08:46.777Z,38.33
2022-11-22T06:11:17.347Z,41.83
2022-11-22T06:13:45.732Z,34.88
2022-11-22T06:16:12.800Z,35.53
2022-11-22T06:18:39.413Z,35.75
2022-11-22T06:21:08.500Z,35.78
2022-11-22T06:23:34.972Z,41.45
2022-11-22T06:26:05.272Z,39.10
2022-11-22T06:28:33.637Z,38.08
2022-11-22T06:31:19.875Z,39.92
2022-11-22T06:33:46.408Z,37.67
2022-11-22T06:36:21.197Z,39.45
2022-11-22T06:38:48.297Z,36.83
2022-11-22T06:41:20.318Z,43.13
2022-11-22T06:43:49.658Z,36.15
2022-11-22T06:46:18.022Z,41.83
2022-11-22T06:48:44.640Z,35.13
2022-11-22T06:51:17.195Z,40.05
2022-11-22T06:53:48.454Z,39.80
2022-11-22T06:56:20.939Z,37.10
2022-11-22T06:58:48.841Z,40.75
2022-11-22T07:01:23.609Z,38.60
2022-11-22T07:03:51.325Z,39.35
2022-11-22T07:06:19.352Z,40.88
2022-11-22T07:08:46.731Z,41.65
2022-11-22T07:11:15.793Z,37.58
2022-11-22T07:13:42.694Z,42.03
2022-11-22T07:16:12.159Z,43.10
2022-11-22T07:18:39.184Z,40.38
2022-11-22T07:21:14.231Z,41.25
2022-11-22T07:23:43.080Z,41.70
2022-11-22T07:26:13.351Z,45.50
2022-11-22T07:28:40.249Z,39.78
2022-11-22T07:31:08.576Z,44.08
2022-11-22T07:33:35.512Z,38.00
2022-11-22T07:36:07.148Z,41.42
2022-11-22T07:38:34.327Z,42.80
2022-11-22T07:41:01.167Z,37.25
2022-11-22T07:43:28.451Z,41.25
2022-11-22T07:45:59.120Z,41.42
2022-11-22T07:48:25.561Z,40.00
2022-11-22T07:50:52.031Z,42.00
2022-11-22T07:53:18.441Z,41.85
2022-11-22T07:55:44.916Z,42.05
2022-11-22T07:58:11.485Z,38.05
2022-11-22T08:00:38.105Z,39.60
2022-11-22T08:03:07.541Z,45.08
2022-11-22T08:05:34.074Z,41.08
2022-11-22T08:08:00.489Z,42.38
2022-11-22T08:10:26.882Z,45.70
2022-11-22T08:12:53.291Z,40.47
2022-11-22T08:15:19.700Z,44.88
2022-11-22T08:17:46.067Z,40.72
2022-11-22T08:20:13.214Z,39.60
2022-11-22T08:22:40.865Z,38.03
2022-11-22T08:25:12.437Z,45.88
2022-11-22T08:27:43.195Z,47.47
2022-11-22T08:30:11.145Z,46.13
2022-11-22T08:32:38.275Z,46.25
2022-11-22T08:35:05.173Z,47.10
2022-11-22T08:37:31.689Z,46.47
2022-11-22T08:39:58.080Z,43.30
2022-11-22T08:42:24.501Z,42.25
2022-11-22T08:44:50.945Z,48.15
2022-11-22T08:47:17.645Z,38.28
2022-11-22T08:49:44.213Z,49.85
2022-11-22T08:52:10.672Z,47.30
2022-11-22T08:54:38.119Z,47.17
2022-11-22T08:57:05.161Z,44.97
2022-11-22T08:59:31.858Z,51.38
2022-11-22T09:01:58.524Z,49.38
2022-11-22T09:04:25.013Z,49.78
2022-11-22T09:09:38.316Z,46.10
2022-11-22T09:12:05.301Z,51.45
2022-11-22T09:14:31.786Z,48.65
2022-11-22T09:16:58.270Z,47.65
2022-11-22T09:19:25.417Z,50.08
2022-11-22T09:21:51.808Z,42.40
2022-11-22T09:24:18.259Z,45.90
2022-11-22T09:26:44.699Z,44.17
2022-11-22T09:29:11.136Z,47.38
2022-11-22T09:31:37.664Z,47.65
2022-11-22T09:34:04.136Z,48.72
2022-11-22T09:36:30.972Z,47.78
2022-11-22T09:38:57.630Z,49.28
2022-11-22T09:41:26.783Z,46.58
2022-11-22T09:44:24.077Z,45.38
2022-11-22T09:46:50.436Z,42.72
2022-11-22T09:49:28.075Z,42.65
2022-11-22T09:52:05.405Z,44.17
2022-11-22T09:54:59.558Z,44.22
2022-11-22T09:57:32.726Z,46.60
2022-11-22T10:00:06.578Z,50.00
2022-11-22T10:03:00.233Z,43.92
2022-11-22T10:05:33.580Z,45.20
2022-11-22T10:08:13.029Z,46.22
2022-11-22T10:10:42.856Z,44.53
2022-11-22T10:13:15.296Z,51.22
2022-11-22T10:15:49.548Z,47.53
2022-11-22T10:18:48.238Z,45.72
2022-11-22T10:21:15.093Z,45.88
2022-11-22T10:23:43.033Z,45.05
2022-11-22T10:26:26.177Z,44.30
2022-11-22T10:29:14.212Z,43.83
2022-11-22T10:31:43.676Z,43.47
2022-11-22T10:34:28.680Z,49.55
2022-11-22T10:36:58.808Z,48.72
2022-11-22T10:39:49.711Z,49.00
2022-11-22T10:42:25.621Z,37.35
2022-11-22T10:44:55.080Z,50.47
2022-11-22T10:47:41.628Z,53.00
2022-11-22T10:50:52.252Z,54.97
2022-11-22T10:53:42.933Z,54.85
2022-11-22T10:57:08.026Z,56.38
2022-11-22T11:00:02.877Z,54.80
2022-11-22T11:02:47.825Z,59.38
2022-11-22T11:05:20.088Z,56.67
2022-11-22T11:07:56.569Z,55.72
2022-11-22T11:10:35.230Z,52.90
2022-11-22T11:13:15.112Z,63.22
2022-11-22T11:15:52.817Z,55.72
2022-11-22T11:18:32.661Z,64.55
2022-11-22T11:20:59.093Z,59.45
2022-11-22T11:23:25.504Z,56.70
2022-11-22T11:25:52.408Z,57.80
2022-11-22T11:28:20.577Z,58.38
2022-11-22T11:30:58.313Z,62.35
2022-11-22T11:33:33.467Z,57.53
2022-11-22T11:36:16.867Z,63.08
2022-11-22T11:38:43.220Z,66.78
2022-11-22T11:41:42.064Z,60.53
2022-11-22T11:44:36.018Z,63.47
2022-11-22T11:47:05.591Z,60.70
2022-11-22T11:49:34.382Z,64.78
2022-11-22T11:52:08.109Z,62.45
2022-11-22T11:54:43.948Z,57.08
2022-11-22T11:57:35.033Z,63.38
2022-11-22T12:00:04.741Z,60.55
2022-11-22T12:02:42.723Z,61.67
2022-11-22T12:05:15.082Z,58.80
2022-11-22T12:07:44.682Z,67.70
2022-11-22T12:10:30.052Z,59.42
2022-11-22T12:13:27.469Z,63.33
2022-11-22T12:15:59.904Z,68.43
2022-11-22T12:18:40.454Z,58.38
2022-11-22T12:21:19.332Z,64.97
2022-11-22T12:24:26.901Z,65.93
2022-11-22T12:26:50.324Z,63.97
2022-11-22T12:29:16.795Z,61.17
2022-11-22T12:32:27.534Z,63.35
2022-11-22T12:34:59.711Z,65.55
2022-11-22T12:37:40.761Z,62.70
2022-11-22T12:40:17.121Z,69.30
2022-11-22T12:42:55.966Z,67.75
2022-11-22T12:45:31.042Z,54.40
2022-11-22T12:48:00.785Z,63.75
2022-11-22T12:50:37.564Z,65.93
2022-11-22T12:53:17.505Z,67.82
2022-11-22T12:55:59.128Z,64.60
2022-11-22T13:01:38.987Z,64.95
2022-11-22T13:04:16.009Z,61.63
2022-11-22T13:06:50.288Z,65.30
2022-11-22T13:09:24.424Z,68.75
2022-11-22T13:12:10.277Z,62.80
2022-11-22T13:14:42.600Z,66.30
2022-11-22T13:17:11.061Z,64.68
2022-11-22T13:19:49.112Z,61.75
2022-11-22T13:22:29.481Z,64.35
2022-11-22T13:25:05.242Z,62.25
2022-11-22T13:27:36.280Z,59.97
2022-11-22T13:30:03.719Z,62.13
2022-11-22T13:32:32.587Z,65.00
2022-11-22T13:35:11.512Z,65.72
2022-11-22T13:37:42.505Z,64.97
2022-11-22T13:40:29.932Z,72.47
2022-11-22T13:43:19.589Z,62.67
2022-11-22T13:45:52.041Z,64.82
2022-11-22T13:48:40.229Z,66.57
2022-11-22T13:51:11.821Z,70.13
2022-11-22T13:53:47.851Z,69.72
2022-11-22T13:56:16.962Z,66.55
2022-11-22T13:59:13.677Z,61.38
2022-11-22T14:01:40.156Z,67.75
2022-11-22T14:04:15.808Z,63.90
2022-11-22T14:07:21.577Z,69.38
2022-11-22T14:09:50.750Z,65.85
2022-11-22T14:12:30.301Z,67.55
2022-11-22T14:15:15.128Z,71.10
2022-11-22T14:18:06.042Z,64.30
2022-11-22T14:21:10.269Z,69.97
2022-11-22T14:23:39.674Z,70.13
2022-11-22T14:26:19.385Z,68.43
2022-11-22T14:29:04.134Z,58.35
2022-11-22T14:31:34.225Z,62.92
2022-11-22T14:34:19.159Z,65.15
2022-11-22T14:37:06.449Z,65.20
2022-11-22T14:39:45.167Z,67.68
2022-11-22T14:42:40.984Z,56.92
2022-11-22T14:45:10.515Z,65.28
2022-11-22T14:47:40.599Z,62.25
2022-11-22T14:50:18.630Z,67.53
2022-11-22T14:52:47.917Z,60.25
2022-11-22T14:55:18.935Z,66.10
2022-11-22T14:57:48.684Z,65.60
2022-11-22T15:00:15.297Z,66.15
2022-11-22T15:03:23.810Z,76.80
2022-11-22T15:09:12.287Z,60.03
2022-11-22T15:09:23.226Z,69.70
2022-11-22T15:11:53.495Z,71.15
2022-11-22T15:14:47.391Z,59.35
2022-11-22T15:57:32.213Z,69.13
2022-11-22T16:02:29.887Z,63.38
2022-11-22T16:06:09.702Z,58.40
2022-11-22T16:07:49.046Z,68.70
2022-11-22T16:10:32.960Z,67.13
2022-11-22T16:13:19.800Z,67.53
2022-11-22T16:16:06.341Z,64.25
2022-11-22T16:18:32.972Z,68.22
2022-11-22T16:21:11.502Z,66.10
2022-11-22T16:23:39.715Z,67.47
2022-11-22T16:26:19.084Z,68.13
2022-11-22T16:28:54.720Z,63.42
2022-11-22T16:31:24.013Z,69.97
2022-11-22T16:33:51.734Z,67.95
2022-11-22T16:36:20.086Z,70.88
2022-11-22T16:38:46.989Z,74.88
2022-11-22T16:41:22.122Z,73.28
2022-11-22T16:43:51.996Z,75.75
2022-11-22T16:46:19.140Z,67.13
2022-11-22T16:48:45.871Z,63.78
2022-11-22T16:51:15.132Z,72.28
2022-11-22T16:53:46.997Z,72.93
2022-11-22T16:56:24.647Z,71.25
2022-11-22T16:58:52.681Z,67.20
2022-11-22T17:01:21.839Z,67.95
2022-11-22T17:03:52.004Z,72.95
2022-11-22T17:06:24.269Z,69.10
2022-11-22T17:08:52.942Z,65.07
2022-11-22T17:11:21.657Z,81.25
2022-11-22T17:13:48.217Z,75.20
2022-11-22T17:16:17.780Z,79.80
2022-11-22T17:18:45.766Z,75.53
2022-11-22T17:21:24.066Z,74.32
2022-11-22T17:23:51.251Z,73.15
2022-11-22T17:26:17.716Z,68.72
2022-11-22T17:28:44.852Z,72.63
2022-11-22T17:31:16.902Z,66.47
2022-11-22T17:33:43.583Z,68.50
2022-11-22T17:36:39.013Z,76.78
2022-11-22T17:39:08.124Z,71.47
2022-11-22T17:41:35.297Z,73.70
2022-11-22T17:44:02.492Z,74.55
2022-11-22T17:46:30.521Z,65.97
2022-11-22T17:48:59.561Z,64.43
2022-11-22T17:51:27.747Z,72.32
2022-11-22T17:53:54.809Z,75.45
2022-11-22T17:56:21.540Z,64.47
2022-11-22T17:58:48.708Z,80.15
2022-11-22T18:01:18.104Z,74.80
2022-11-22T18:03:46.111Z,67.72
2022-11-22T18:06:14.077Z,72.25
2022-11-22T18:08:46.410Z,76.20
2022-11-22T18:11:13.863Z,78.55
2022-11-22T18:13:40.356Z,80.28
2022-11-22T18:16:12.065Z,73.78
2022-11-22T18:21:26.564Z,77.78
2022-11-22T18:23:53.252Z,79.30
2022-11-22T18:31:54.172Z,79.50
2022-11-22T18:34:24.749Z,74.45
2022-11-22T18:37:07.524Z,76.35
2022-11-22T18:39:37.798Z,77.32
2022-11-22T18:42:12.771Z,81.30
2022-11-22T18:44:39.670Z,74.40
2022-11-22T18:47:06.384Z,74.32
2022-11-22T18:49:33.282Z,79.53
2022-11-22T18:52:00.422Z,79.43
2022-11-22T18:54:26.930Z,74.53
2022-11-22T18:56:53.341Z,81.30
2022-11-22T18:59:19.990Z,74.45
2022-11-22T19:01:46.616Z,78.70
2022-11-22T19:04:16.667Z,75.05
2022-11-22T19:06:44.407Z,75.97
2022-11-22T19:09:11.328Z,76.07
2022-11-22T19:11:38.125Z,74.95
2022-11-22T19:14:05.143Z,75.82
2022-11-22T19:16:31.753Z,77.95
2022-11-22T19:18:59.552Z,85.10
2022-11-22T19:21:28.194Z,73.80
2022-11-22T19:23:56.412Z,81.28
2022-11-22T19:26:25.622Z,79.82
2022-11-22T19:28:56.440Z,72.32
2022-11-22T19:31:28.897Z,77.93
2022-11-22T19:33:55.879Z,81.82
2022-11-22T19:36:31.865Z,77.05
2022-11-22T19:38:59.349Z,73.70
2022-11-22T19:41:26.062Z,78.97
2022-11-22T19:43:52.578Z,76.43
2022-11-22T19:46:22.471Z,75.07
2022-11-22T19:48:52.972Z,86.57
2022-11-22T19:51:20.164Z,81.30
2022-11-22T19:53:46.696Z,67.85
2022-11-22T19:56:15.874Z,79.05
2022-11-22T19:58:43.500Z,71.82
2022-11-22T20:01:13.056Z,85.40
2022-11-22T20:03:41.425Z,78.30
2022-11-22T20:06:09.959Z,75.47
2022-11-22T20:08:37.396Z,75.90
2022-11-22T20:11:06.176Z,75.22
2022-11-22T20:13:37.951Z,72.32
2022-11-22T20:16:08.619Z,91.13
2022-11-22T20:18:35.109Z,89.80
2022-11-22T20:21:02.566Z,74.95
2022-11-22T20:23:30.322Z,78.40
2022-11-22T20:26:11.394Z,77.15
2022-11-22T20:28:39.248Z,85.55
2022-11-22T20:31:24.290Z,72.55
2022-11-22T20:33:52.770Z,90.07
2022-11-22T20:36:22.175Z,74.68
2022-11-22T20:38:49.822Z,70.47
2022-11-22T20:41:18.283Z,74.18
2022-11-22T20:43:45.273Z,72.55
2022-11-22T20:46:14.689Z,77.03
2022-11-22T20:48:42.743Z,74.60
2022-11-22T20:51:12.442Z,80.47
2022-11-22T20:53:39.170Z,71.45
2022-11-22T20:56:05.992Z,80.88
2022-11-22T20:58:32.777Z,74.95
2022-11-22T21:01:04.250Z,71.75
2022-11-22T21:05:57.224Z,73.93
2022-11-22T21:08:23.724Z,86.00
2022-11-22T21:10:50.101Z,76.40
2022-11-22T21:13:16.972Z,72.13
2022-11-22T21:15:43.710Z,81.20
2022-11-22T21:18:25.176Z,73.43
2022-11-22T21:20:52.336Z,70.70
2022-11-22T21:23:18.821Z,75.78
2022-11-22T21:25:46.546Z,73.30
2022-11-22T21:28:13.006Z,75.40
2022-11-22T21:30:39.475Z,77.47
2022-11-22T21:33:05.969Z,71.53
2022-11-22T21:35:32.397Z,78.05
2022-11-22T21:37:58.805Z,81.00
2022-11-22T21:40:25.185Z,73.95
2022-11-22T21:42:51.663Z,78.35
2022-11-22T21:45:18.081Z,74.25
2022-11-22T21:47:47.237Z,81.57
2022-11-22T21:50:15.217Z,81.55
2022-11-22T21:52:42.247Z,77.78
2022-11-22T21:55:09.598Z,74.60
2022-11-22T21:57:36.010Z,70.47
2022-11-22T22:00:03.838Z,80.88
2022-11-22T22:02:32.841Z,79.55
2022-11-22T22:04:59.349Z,79.78
2022-11-22T22:07:50.660Z,80.38
2022-11-22T22:10:13.488Z,75.30
2022-11-22T22:12:40.784Z,80.45
2022-11-22T22:15:12.531Z,74.80
2022-11-22T22:17:39.238Z,74.47
2022-11-22T22:20:06.441Z,76.30
2022-11-22T22:22:36.768Z,79.25
2022-11-22T22:25:05.060Z,72.32
2022-11-22T22:27:32.939Z,75.28
2022-11-22T22:29:59.721Z,78.30
2022-11-22T22:32:27.476Z,79.32
2022-11-22T22:34:54.444Z,75.82
2022-11-22T22:37:20.910Z,66.72
2022-11-22T22:39:47.344Z,77.00
2022-11-22T22:42:14.159Z,66.50
2022-11-22T22:44:40.577Z,72.82
2022-11-22T22:47:07.083Z,67.50
2022-11-22T22:49:33.928Z,72.45
2022-11-22T22:52:00.452Z,71.82
2022-11-22T22:54:26.874Z,73.57
2022-11-22T22:56:53.245Z,70.22
2022-11-22T22:59:19.681Z,77.90
2022-11-22T23:01:46.220Z,68.80
2022-11-22T23:04:12.663Z,75.38
2022-11-22T23:06:39.754Z,64.10
2022-11-22T23:09:09.445Z,68.57
2022-11-22T23:11:55.427Z,72.13
2022-11-22T23:14:24.885Z,75.20
2022-11-22T23:16:57.035Z,77.95
2022-11-22T23:19:24.804Z,73.38
2022-11-22T23:21:51.756Z,69.68
2022-11-22T23:24:18.264Z,67.72
2022-11-22T23:26:44.717Z,74.72
2022-11-22T23:29:11.289Z,72.40
2022-11-22T23:31:37.820Z,68.80
2022-11-22T23:34:04.472Z,72.50
2022-11-22T23:36:32.925Z,69.32
2022-11-22T23:39:02.774Z,72.97
2022-11-22T23:41:30.044Z,71.00
2022-11-22T23:43:57.147Z,68.93
2022-11-22T23:46:27.276Z,64.22
2022-11-22T23:48:56.028Z,74.80
2022-11-22T23:51:23.164Z,70.65
2022-11-22T23:53:54.304Z,65.82
2022-11-22T23:56:22.081Z,73.63
2022-11-22T23:58:49.171Z,70.82
